sensor_id;sensor_type;location;lat;lon;timestamp;P1;durP1;ratioP1;P2;durP2;ratioP2
35943;SDS011;22029;54.774;9.434;2023-10-08T00:01:51;0.30;;;0.30;;
35943;SDS011;22029;54.774;9.434;2023-10-08T00:04:23;0.20;;;0.20;;
35943;SDS011;22029;54.774;9.434;2023-10-08T00:06:53;0.23;;;0.23;;
35943;SDS011;22029;54.774;9.434;2023-10-08T00:09:23;0.30;;;0.30;;
35943;SDS011;22029;54.774;9.434;2023-10-08T00:11:54;0.30;;;0.30;;
35943;SDS011;22029;54.774;9.434;2023-10-08T00:14:24;0.30;;;0.30;;
35943;SDS011;22029;54.774;9.434;2023-10-08T00:16:55;0.30;;;0.30;;
35943;SDS011;22029;54.774;9.434;2023-10-08T00:19:25;0.30;;;0.30;;
35943;SDS011;22029;54.774;9.434;2023-10-08T00:22:01;0.30;;;0.30;;
35943;SDS011;22029;54.774;9.434;2023-10-08T00:24:35;0.30;;;0.30;;
35943;SDS011;22029;54.774;9.434;2023-10-08T00:27:10;0.30;;;0.30;;
35943;SDS011;22029;54.774;9.434;2023-10-08T00:29:42;0.30;;;0.30;;
35943;SDS011;22029;54.774;9.434;2023-10-08T00:32:12;0.30;;;0.30;;
35943;SDS011;22029;54.774;9.434;2023-10-08T00:34:42;0.30;;;0.30;;
35943;SDS011;22029;54.774;9.434;2023-10-08T00:37:12;0.20;;;0.20;;
35943;SDS011;22029;54.774;9.434;2023-10-08T00:39:42;0.23;;;0.23;;
35943;SDS011;22029;54.774;9.434;2023-10-08T00:42:14;0.20;;;0.20;;
35943;SDS011;22029;54.774;9.434;2023-10-08T00:44:45;0.30;;;0.30;;
35943;SDS011;22029;54.774;9.434;2023-10-08T00:47:19;0.20;;;0.20;;
35943;SDS011;22029;54.774;9.434;2023-10-08T00:49:53;0.30;;;0.30;;
35943;SDS011;22029;54.774;9.434;2023-10-08T00:52:31;0.30;;;0.30;;
35943;SDS011;22029;54.774;9.434;2023-10-08T00:55:09;0.20;;;0.20;;
35943;SDS011;22029;54.774;9.434;2023-10-08T00:57:49;0.30;;;0.30;;
35943;SDS011;22029;54.774;9.434;2023-10-08T01:00:25;0.20;;;0.20;;
35943;SDS011;22029;54.774;9.434;2023-10-08T01:03:05;0.30;;;0.30;;
35943;SDS011;22029;54.774;9.434;2023-10-08T01:05:43;0.30;;;0.30;;
35943;SDS011;22029;54.774;9.434;2023-10-08T01:08:16;0.30;;;0.30;;
35943;SDS011;22029;54.774;9.434;2023-10-08T01:10:50;0.20;;;0.20;;
35943;SDS011;22029;54.774;9.434;2023-10-08T01:13:33;0.30;;;0.30;;
35943;SDS011;22029;54.774;9.434;2023-10-08T01:16:12;0.30;;;0.30;;
35943;SDS011;22029;54.774;9.434;2023-10-08T01:18:42;0.30;;;0.30;;
35943;SDS011;22029;54.774;9.434;2023-10-08T01:21:17;0.30;;;0.30;;
35943;SDS011;22029;54.774;9.434;2023-10-08T01:24:03;0.20;;;0.20;;
35943;SDS011;22029;54.774;9.434;2023-10-08T01:26:34;0.20;;;0.20;;
35943;SDS011;22029;54.774;9.434;2023-10-08T01:29:10;0.20;;;0.20;;
35943;SDS011;22029;54.774;9.434;2023-10-08T01:31:47;0.30;;;0.30;;
35943;SDS011;22029;54.774;9.434;2023-10-08T01:34:17;0.30;;;0.30;;
35943;SDS011;22029;54.774;9.434;2023-10-08T01:36:54;0.20;;;0.20;;
35943;SDS011;22029;54.774;9.434;2023-10-08T01:39:29;0.20;;;0.20;;
35943;SDS011;22029;54.774;9.434;2023-10-08T01:41:59;0.30;;;0.30;;
35943;SDS011;22029;54.774;9.434;2023-10-08T01:44:30;0.23;;;0.23;;
35943;SDS011;22029;54.774;9.434;2023-10-08T01:47:01;0.20;;;0.20;;
35943;SDS011;22029;54.774;9.434;2023-10-08T01:49:31;0.23;;;0.23;;
35943;SDS011;22029;54.774;9.434;2023-10-08T01:52:01;0.30;;;0.30;;
35943;SDS011;22029;54.774;9.434;2023-10-08T01:54:42;0.30;;;0.30;;
35943;SDS011;22029;54.774;9.434;2023-10-08T01:57:11;0.30;;;0.30;;
35943;SDS011;22029;54.774;9.434;2023-10-08T01:59:42;0.20;;;0.20;;
35943;SDS011;22029;54.774;9.434;2023-10-08T02:02:11;0.20;;;0.20;;
35943;SDS011;22029;54.774;9.434;2023-10-08T02:04:43;0.30;;;0.30;;
35943;SDS011;22029;54.774;9.434;2023-10-08T02:07:13;0.30;;;0.30;;
35943;SDS011;22029;54.774;9.434;2023-10-08T02:09:44;0.30;;;0.30;;
35943;SDS011;22029;54.774;9.434;2023-10-08T02:12:14;0.20;;;0.20;;
35943;SDS011;22029;54.774;9.434;2023-10-08T02:14:44;0.20;;;0.20;;
35943;SDS011;22029;54.774;9.434;2023-10-08T02:17:13;0.30;;;0.30;;
35943;SDS011;22029;54.774;9.434;2023-10-08T02:19:43;0.30;;;0.30;;
35943;SDS011;22029;54.774;9.434;2023-10-08T02:22:13;0.20;;;0.20;;
35943;SDS011;22029;54.774;9.434;2023-10-08T02:24:42;0.30;;;0.30;;
35943;SDS011;22029;54.774;9.434;2023-10-08T02:27:13;0.30;;;0.30;;
35943;SDS011;22029;54.774;9.434;2023-10-08T02:29:43;0.30;;;0.30;;
35943;SDS011;22029;54.774;9.434;2023-10-08T02:32:12;0.30;;;0.30;;
35943;SDS011;22029;54.774;9.434;2023-10-08T02:34:42;0.20;;;0.20;;
35943;SDS011;22029;54.774;9.434;2023-10-08T02:37:12;0.30;;;0.30;;
35943;SDS011;22029;54.774;9.434;2023-10-08T02:39:42;0.20;;;0.20;;
35943;SDS011;22029;54.774;9.434;2023-10-08T02:42:13;0.30;;;0.30;;
35943;SDS011;22029;54.774;9.434;2023-10-08T02:44:44;0.30;;;0.30;;
35943;SDS011;22029;54.774;9.434;2023-10-08T02:47:13;0.20;;;0.20;;
35943;SDS011;22029;54.774;9.434;2023-10-08T02:49:44;0.30;;;0.30;;
35943;SDS011;22029;54.774;9.434;2023-10-08T02:52:15;0.30;;;0.30;;
35943;SDS011;22029;54.774;9.434;2023-10-08T02:54:45;0.30;;;0.30;;
35943;SDS011;22029;54.774;9.434;2023-10-08T02:57:16;0.30;;;0.30;;
35943;SDS011;22029;54.774;9.434;2023-10-08T02:59:49;0.30;;;0.30;;
35943;SDS011;22029;54.774;9.434;2023-10-08T03:02:21;0.30;;;0.30;;
35943;SDS011;22029;54.774;9.434;2023-10-08T03:04:52;0.30;;;0.30;;
35943;SDS011;22029;54.774;9.434;2023-10-08T03:07:22;0.20;;;0.20;;
35943;SDS011;22029;54.774;9.434;2023-10-08T03:10:00;0.20;;;0.20;;
35943;SDS011;22029;54.774;9.434;2023-10-08T03:12:35;0.30;;;0.30;;
35943;SDS011;22029;54.774;9.434;2023-10-08T03:15:07;0.30;;;0.30;;
35943;SDS011;22029;54.774;9.434;2023-10-08T03:17:55;0.30;;;0.30;;
35943;SDS011;22029;54.774;9.434;2023-10-08T03:20:35;0.30;;;0.30;;
35943;SDS011;22029;54.774;9.434;2023-10-08T03:23:11;0.30;;;0.30;;
35943;SDS011;22029;54.774;9.434;2023-10-08T03:25:53;0.30;;;0.30;;
35943;SDS011;22029;54.774;9.434;2023-10-08T03:28:30;0.40;;;0.40;;
35943;SDS011;22029;54.774;9.434;2023-10-08T03:31:02;0.30;;;0.30;;
35943;SDS011;22029;54.774;9.434;2023-10-08T03:33:33;0.30;;;0.30;;
35943;SDS011;22029;54.774;9.434;2023-10-08T03:36:05;0.30;;;0.30;;
35943;SDS011;22029;54.774;9.434;2023-10-08T03:38:41;0.27;;;0.27;;
35943;SDS011;22029;54.774;9.434;2023-10-08T03:41:18;0.30;;;0.30;;
35943;SDS011;22029;54.774;9.434;2023-10-08T03:43:57;0.30;;;0.30;;
35943;SDS011;22029;54.774;9.434;2023-10-08T03:46:33;0.20;;;0.20;;
35943;SDS011;22029;54.774;9.434;2023-10-08T03:49:07;0.20;;;0.20;;
35943;SDS011;22029;54.774;9.434;2023-10-08T03:51:42;0.30;;;0.30;;
35943;SDS011;22029;54.774;9.434;2023-10-08T03:54:12;0.20;;;0.20;;
35943;SDS011;22029;54.774;9.434;2023-10-08T03:56:45;0.30;;;0.30;;
35943;SDS011;22029;54.774;9.434;2023-10-08T03:59:18;0.20;;;0.20;;
35943;SDS011;22029;54.774;9.434;2023-10-08T04:01:58;0.20;;;0.20;;
35943;SDS011;22029;54.774;9.434;2023-10-08T04:04:37;0.30;;;0.30;;
35943;SDS011;22029;54.774;9.434;2023-10-08T04:07:21;0.30;;;0.30;;
35943;SDS011;22029;54.774;9.434;2023-10-08T04:09:57;0.30;;;0.30;;
35943;SDS011;22029;54.774;9.434;2023-10-08T04:12:54;0.30;;;0.30;;
35943;SDS011;22029;54.774;9.434;2023-10-08T04:15:25;0.23;;;0.23;;
35943;SDS011;22029;54.774;9.434;2023-10-08T04:17:55;0.30;;;0.30;;
35943;SDS011;22029;54.774;9.434;2023-10-08T04:20:25;0.20;;;0.20;;
35943;SDS011;22029;54.774;9.434;2023-10-08T04:23:07;0.30;;;0.30;;
35943;SDS011;22029;54.774;9.434;2023-10-08T04:25:41;0.30;;;0.30;;
35943;SDS011;22029;54.774;9.434;2023-10-08T04:28:11;0.30;;;0.30;;
35943;SDS011;22029;54.774;9.434;2023-10-08T04:30:46;0.20;;;0.20;;
35943;SDS011;22029;54.774;9.434;2023-10-08T04:33:18;0.20;;;0.20;;
35943;SDS011;22029;54.774;9.434;2023-10-08T04:35:48;0.30;;;0.30;;
35943;SDS011;22029;54.774;9.434;2023-10-08T04:38:20;0.30;;;0.30;;
35943;SDS011;22029;54.774;9.434;2023-10-08T04:40:50;0.30;;;0.30;;
35943;SDS011;22029;54.774;9.434;2023-10-08T04:43:20;0.30;;;0.30;;
35943;SDS011;22029;54.774;9.434;2023-10-08T04:45:54;0.20;;;0.20;;
35943;SDS011;22029;54.774;9.434;2023-10-08T04:48:24;0.27;;;0.27;;
35943;SDS011;22029;54.774;9.434;2023-10-08T04:50:57;0.30;;;0.30;;
35943;SDS011;22029;54.774;9.434;2023-10-08T04:53:27;0.30;;;0.30;;
35943;SDS011;22029;54.774;9.434;2023-10-08T04:56:05;0.30;;;0.30;;
35943;SDS011;22029;54.774;9.434;2023-10-08T04:58:41;0.30;;;0.30;;
35943;SDS011;22029;54.774;9.434;2023-10-08T05:01:15;0.30;;;0.30;;
35943;SDS011;22029;54.774;9.434;2023-10-08T05:03:55;0.30;;;0.30;;
35943;SDS011;22029;54.774;9.434;2023-10-08T05:06:52;0.30;;;0.30;;
35943;SDS011;22029;54.774;9.434;2023-10-08T05:09:40;0.30;;;0.30;;
35943;SDS011;22029;54.774;9.434;2023-10-08T05:12:19;0.30;;;0.30;;
35943;SDS011;22029;54.774;9.434;2023-10-08T05:15:02;0.30;;;0.30;;
35943;SDS011;22029;54.774;9.434;2023-10-08T05:18:01;0.30;;;0.30;;
35943;SDS011;22029;54.774;9.434;2023-10-08T05:20:51;0.30;;;0.30;;
35943;SDS011;22029;54.774;9.434;2023-10-08T05:23:30;0.30;;;0.30;;
35943;SDS011;22029;54.774;9.434;2023-10-08T05:26:38;0.30;;;0.30;;
35943;SDS011;22029;54.774;9.434;2023-10-08T05:29:12;0.30;;;0.30;;
35943;SDS011;22029;54.774;9.434;2023-10-08T05:32:17;0.30;;;0.30;;
35943;SDS011;22029;54.774;9.434;2023-10-08T05:35:08;0.30;;;0.30;;
35943;SDS011;22029;54.774;9.434;2023-10-08T05:37:57;0.30;;;0.30;;
35943;SDS011;22029;54.774;9.434;2023-10-08T05:40:42;0.30;;;0.30;;
35943;SDS011;22029;54.774;9.434;2023-10-08T05:43:30;0.30;;;0.30;;
35943;SDS011;22029;54.774;9.434;2023-10-08T05:46:23;0.30;;;0.30;;
35943;SDS011;22029;54.774;9.434;2023-10-08T05:49:14;0.30;;;0.30;;
35943;SDS011;22029;54.774;9.434;2023-10-08T05:52:07;0.30;;;0.30;;
35943;SDS011;22029;54.774;9.434;2023-10-08T05:54:52;0.30;;;0.30;;
35943;SDS011;22029;54.774;9.434;2023-10-08T05:57:40;0.30;;;0.30;;
35943;SDS011;22029;54.774;9.434;2023-10-08T06:00:14;0.30;;;0.30;;
35943;SDS011;22029;54.774;9.434;2023-10-08T06:03:13;0.30;;;0.30;;
35943;SDS011;22029;54.774;9.434;2023-10-08T06:06:04;0.30;;;0.30;;
35943;SDS011;22029;54.774;9.434;2023-10-08T06:09:05;0.30;;;0.30;;
35943;SDS011;22029;54.774;9.434;2023-10-08T06:11:48;0.30;;;0.30;;
35943;SDS011;22029;54.774;9.434;2023-10-08T06:14:35;0.20;;;0.20;;
35943;SDS011;22029;54.774;9.434;2023-10-08T06:17:20;0.30;;;0.30;;
35943;SDS011;22029;54.774;9.434;2023-10-08T06:20:12;0.33;;;0.33;;
35943;SDS011;22029;54.774;9.434;2023-10-08T06:22:43;0.30;;;0.30;;
35943;SDS011;22029;54.774;9.434;2023-10-08T06:25:14;0.20;;;0.20;;
35943;SDS011;22029;54.774;9.434;2023-10-08T06:27:45;0.30;;;0.30;;
35943;SDS011;22029;54.774;9.434;2023-10-08T06:30:15;0.30;;;0.30;;
35943;SDS011;22029;54.774;9.434;2023-10-08T06:32:45;0.30;;;0.30;;
35943;SDS011;22029;54.774;9.434;2023-10-08T06:35:15;0.30;;;0.30;;
35943;SDS011;22029;54.774;9.434;2023-10-08T06:37:46;0.30;;;0.30;;
35943;SDS011;22029;54.774;9.434;2023-10-08T06:40:18;0.30;;;0.30;;
35943;SDS011;22029;54.774;9.434;2023-10-08T06:43:05;0.30;;;0.30;;
35943;SDS011;22029;54.774;9.434;2023-10-08T06:45:42;0.30;;;0.30;;
35943;SDS011;22029;54.774;9.434;2023-10-08T06:48:13;0.23;;;0.23;;
35943;SDS011;22029;54.774;9.434;2023-10-08T06:50:48;0.30;;;0.30;;
35943;SDS011;22029;54.774;9.434;2023-10-08T06:53:18;0.23;;;0.23;;
35943;SDS011;22029;54.774;9.434;2023-10-08T06:55:50;0.30;;;0.30;;
35943;SDS011;22029;54.774;9.434;2023-10-08T06:58:24;0.30;;;0.30;;
35943;SDS011;22029;54.774;9.434;2023-10-08T07:00:54;0.20;;;0.20;;
35943;SDS011;22029;54.774;9.434;2023-10-08T07:03:26;0.20;;;0.20;;
35943;SDS011;22029;54.774;9.434;2023-10-08T07:05:58;0.30;;;0.30;;
35943;SDS011;22029;54.774;9.434;2023-10-08T07:08:30;0.20;;;0.20;;
35943;SDS011;22029;54.774;9.434;2023-10-08T07:11:02;0.20;;;0.20;;
35943;SDS011;22029;54.774;9.434;2023-10-08T07:13:34;0.20;;;0.20;;
35943;SDS011;22029;54.774;9.434;2023-10-08T07:16:05;0.30;;;0.30;;
35943;SDS011;22029;54.774;9.434;2023-10-08T07:18:39;0.20;;;0.20;;
35943;SDS011;22029;54.774;9.434;2023-10-08T07:21:12;0.30;;;0.30;;
35943;SDS011;22029;54.774;9.434;2023-10-08T07:23:41;0.30;;;0.30;;
35943;SDS011;22029;54.774;9.434;2023-10-08T07:26:26;0.20;;;0.20;;
35943;SDS011;22029;54.774;9.434;2023-10-08T07:29:04;0.20;;;0.20;;
35943;SDS011;22029;54.774;9.434;2023-10-08T07:31:36;0.20;;;0.20;;
35943;SDS011;22029;54.774;9.434;2023-10-08T07:34:09;0.20;;;0.20;;
35943;SDS011;22029;54.774;9.434;2023-10-08T07:36:54;0.20;;;0.20;;
35943;SDS011;22029;54.774;9.434;2023-10-08T07:39:23;0.20;;;0.20;;
35943;SDS011;22029;54.774;9.434;2023-10-08T07:42:03;0.20;;;0.20;;
35943;SDS011;22029;54.774;9.434;2023-10-08T07:44:35;0.20;;;0.20;;
35943;SDS011;22029;54.774;9.434;2023-10-08T07:47:07;0.20;;;0.20;;
35943;SDS011;22029;54.774;9.434;2023-10-08T07:49:40;0.30;;;0.30;;
35943;SDS011;22029;54.774;9.434;2023-10-08T07:52:12;0.27;;;0.27;;
35943;SDS011;22029;54.774;9.434;2023-10-08T07:54:44;0.20;;;0.20;;
35943;SDS011;22029;54.774;9.434;2023-10-08T07:57:16;0.23;;;0.23;;
35943;SDS011;22029;54.774;9.434;2023-10-08T07:59:53;0.20;;;0.20;;
35943;SDS011;22029;54.774;9.434;2023-10-08T08:02:38;0.20;;;0.20;;
35943;SDS011;22029;54.774;9.434;2023-10-08T08:05:09;0.20;;;0.20;;
35943;SDS011;22029;54.774;9.434;2023-10-08T08:07:44;0.20;;;0.20;;
35943;SDS011;22029;54.774;9.434;2023-10-08T08:10:14;0.20;;;0.20;;
35943;SDS011;22029;54.774;9.434;2023-10-08T08:12:47;0.20;;;0.20;;
35943;SDS011;22029;54.774;9.434;2023-10-08T08:15:19;0.30;;;0.30;;
35943;SDS011;22029;54.774;9.434;2023-10-08T08:17:50;0.20;;;0.20;;
35943;SDS011;22029;54.774;9.434;2023-10-08T08:20:20;0.27;;;0.27;;
35943;SDS011;22029;54.774;9.434;2023-10-08T08:23:02;0.20;;;0.20;;
35943;SDS011;22029;54.774;9.434;2023-10-08T08:25:37;0.30;;;0.30;;
35943;SDS011;22029;54.774;9.434;2023-10-08T08:28:14;0.20;;;0.20;;
35943;SDS011;22029;54.774;9.434;2023-10-08T08:30:47;0.20;;;0.20;;
35943;SDS011;22029;54.774;9.434;2023-10-08T08:33:20;0.30;;;0.30;;
35943;SDS011;22029;54.774;9.434;2023-10-08T08:35:57;0.30;;;0.30;;
35943;SDS011;22029;54.774;9.434;2023-10-08T08:38:28;0.20;;;0.20;;
35943;SDS011;22029;54.774;9.434;2023-10-08T08:41:03;0.30;;;0.30;;
35943;SDS011;22029;54.774;9.434;2023-10-08T08:43:36;0.30;;;0.30;;
35943;SDS011;22029;54.774;9.434;2023-10-08T08:46:11;0.30;;;0.30;;
35943;SDS011;22029;54.774;9.434;2023-10-08T08:48:41;0.30;;;0.30;;
35943;SDS011;22029;54.774;9.434;2023-10-08T08:51:11;0.40;;;0.40;;
35943;SDS011;22029;54.774;9.434;2023-10-08T08:53:42;0.40;;;0.40;;
35943;SDS011;22029;54.774;9.434;2023-10-08T08:56:11;0.63;;;0.63;;
35943;SDS011;22029;54.774;9.434;2023-10-08T08:58:44;0.80;;;0.80;;
35943;SDS011;22029;54.774;9.434;2023-10-08T09:01:14;0.90;;;0.90;;
35943;SDS011;22029;54.774;9.434;2023-10-08T09:03:45;1.00;;;1.00;;
35943;SDS011;22029;54.774;9.434;2023-10-08T09:06:16;1.50;;;1.50;;
35943;SDS011;22029;54.774;9.434;2023-10-08T09:08:45;1.70;;;1.70;;
35943;SDS011;22029;54.774;9.434;2023-10-08T09:11:17;1.90;;;1.90;;
35943;SDS011;22029;54.774;9.434;2023-10-08T09:13:48;1.90;;;1.90;;
35943;SDS011;22029;54.774;9.434;2023-10-08T09:16:17;2.70;;;2.60;;
35943;SDS011;22029;54.774;9.434;2023-10-08T09:18:47;3.40;;;3.30;;
35943;SDS011;22029;54.774;9.434;2023-10-08T09:21:17;3.47;;;3.37;;
35943;SDS011;22029;54.774;9.434;2023-10-08T09:23:50;3.70;;;3.60;;
35943;SDS011;22029;54.774;9.434;2023-10-08T09:26:22;3.90;;;3.80;;
35943;SDS011;22029;54.774;9.434;2023-10-08T09:28:53;3.80;;;3.70;;
35943;SDS011;22029;54.774;9.434;2023-10-08T09:31:23;6.17;;;5.97;;
35943;SDS011;22029;54.774;9.434;2023-10-08T09:33:53;6.13;;;5.93;;
35943;SDS011;22029;54.774;9.434;2023-10-08T09:36:23;6.50;;;6.30;;
35943;SDS011;22029;54.774;9.434;2023-10-08T09:39:02;7.40;;;7.20;;
35943;SDS011;22029;54.774;9.434;2023-10-08T09:41:35;7.30;;;7.10;;
35943;SDS011;22029;54.774;9.434;2023-10-08T09:44:07;7.00;;;6.80;;
35943;SDS011;22029;54.774;9.434;2023-10-08T09:46:39;6.80;;;6.60;;
35943;SDS011;22029;54.774;9.434;2023-10-08T09:49:10;7.10;;;6.90;;
35943;SDS011;22029;54.774;9.434;2023-10-08T09:51:41;8.60;;;8.30;;
35943;SDS011;22029;54.774;9.434;2023-10-08T09:54:11;9.00;;;8.70;;
35943;SDS011;22029;54.774;9.434;2023-10-08T09:56:44;8.53;;;8.23;;
35943;SDS011;22029;54.774;9.434;2023-10-08T09:59:15;9.30;;;9.00;;
35943;SDS011;22029;54.774;9.434;2023-10-08T10:01:46;9.27;;;8.97;;
35943;SDS011;22029;54.774;9.434;2023-10-08T10:04:22;9.63;;;9.33;;
35943;SDS011;22029;54.774;9.434;2023-10-08T10:06:53;9.27;;;8.97;;
35943;SDS011;22029;54.774;9.434;2023-10-08T10:09:25;9.10;;;8.80;;
35943;SDS011;22029;54.774;9.434;2023-10-08T10:11:55;9.13;;;8.83;;
35943;SDS011;22029;54.774;9.434;2023-10-08T10:14:27;9.20;;;8.90;;
35943;SDS011;22029;54.774;9.434;2023-10-08T10:17:12;8.47;;;8.17;;
35943;SDS011;22029;54.774;9.434;2023-10-08T10:20:04;10.20;;;9.90;;
35943;SDS011;22029;54.774;9.434;2023-10-08T10:22:38;9.87;;;9.57;;
35943;SDS011;22029;54.774;9.434;2023-10-08T10:25:09;9.70;;;9.40;;
35943;SDS011;22029;54.774;9.434;2023-10-08T10:30:36;9.33;;;9.03;;
35943;SDS011;22029;54.774;9.434;2023-10-08T10:33:08;8.60;;;8.30;;
35943;SDS011;22029;54.774;9.434;2023-10-08T10:35:38;8.20;;;8.00;;
35943;SDS011;22029;54.774;9.434;2023-10-08T10:38:11;9.10;;;8.80;;
35943;SDS011;22029;54.774;9.434;2023-10-08T10:40:41;9.80;;;9.50;;
35943;SDS011;22029;54.774;9.434;2023-10-08T10:43:11;9.40;;;9.10;;
35943;SDS011;22029;54.774;9.434;2023-10-08T10:45:44;9.23;;;8.93;;
35943;SDS011;22029;54.774;9.434;2023-10-08T10:48:15;9.70;;;9.40;;
35943;SDS011;22029;54.774;9.434;2023-10-08T10:50:52;11.00;;;10.60;;
35943;SDS011;22029;54.774;9.434;2023-10-08T10:53:44;9.60;;;9.30;;
35943;SDS011;22029;54.774;9.434;2023-10-08T10:56:24;9.77;;;9.47;;
35943;SDS011;22029;54.774;9.434;2023-10-08T10:58:58;9.30;;;9.00;;
35943;SDS011;22029;54.774;9.434;2023-10-08T11:01:28;9.80;;;9.50;;
35943;SDS011;22029;54.774;9.434;2023-10-08T11:04:12;11.10;;;10.70;;
35943;SDS011;22029;54.774;9.434;2023-10-08T11:06:44;10.13;;;9.83;;
35943;SDS011;22029;54.774;9.434;2023-10-08T11:09:14;11.00;;;10.60;;
35943;SDS011;22029;54.774;9.434;2023-10-08T11:12:03;10.60;;;10.30;;
35943;SDS011;22029;54.774;9.434;2023-10-08T11:14:38;10.70;;;10.40;;
35943;SDS011;22029;54.774;9.434;2023-10-08T11:17:15;10.53;;;10.23;;
35943;SDS011;22029;54.774;9.434;2023-10-08T11:19:45;10.70;;;10.40;;
35943;SDS011;22029;54.774;9.434;2023-10-08T11:22:15;11.20;;;10.80;;
35943;SDS011;22029;54.774;9.434;2023-10-08T11:24:45;12.17;;;11.77;;
35943;SDS011;22029;54.774;9.434;2023-10-08T11:27:16;11.20;;;10.80;;
35943;SDS011;22029;54.774;9.434;2023-10-08T11:29:56;12.40;;;12.00;;
35943;SDS011;22029;54.774;9.434;2023-10-08T11:32:29;12.50;;;12.10;;
35943;SDS011;22029;54.774;9.434;2023-10-08T11:35:00;11.70;;;11.30;;
35943;SDS011;22029;54.774;9.434;2023-10-08T11:37:44;11.50;;;11.10;;
35943;SDS011;22029;54.774;9.434;2023-10-08T11:40:21;11.73;;;11.33;;
35943;SDS011;22029;54.774;9.434;2023-10-08T11:42:56;13.57;;;13.07;;
35943;SDS011;22029;54.774;9.434;2023-10-08T11:45:26;13.63;;;13.13;;
35943;SDS011;22029;54.774;9.434;2023-10-08T11:48:07;14.97;;;14.47;;
35943;SDS011;22029;54.774;9.434;2023-10-08T11:50:40;15.70;;;15.10;;
35943;SDS011;22029;54.774;9.434;2023-10-08T11:53:10;15.30;;;14.80;;
35943;SDS011;22029;54.774;9.434;2023-10-08T11:55:40;15.37;;;14.83;;
35943;SDS011;22029;54.774;9.434;2023-10-08T11:58:10;15.90;;;15.30;;
35943;SDS011;22029;54.774;9.434;2023-10-08T12:00:39;16.60;;;16.00;;
35943;SDS011;22029;54.774;9.434;2023-10-08T12:03:15;16.20;;;15.60;;
35943;SDS011;22029;54.774;9.434;2023-10-08T12:05:48;15.87;;;15.27;;
35943;SDS011;22029;54.774;9.434;2023-10-08T12:08:26;15.57;;;15.07;;
35943;SDS011;22029;54.774;9.434;2023-10-08T12:10:56;14.87;;;14.37;;
35943;SDS011;22029;54.774;9.434;2023-10-08T12:13:27;14.70;;;14.20;;
35943;SDS011;22029;54.774;9.434;2023-10-08T12:15:57;14.20;;;13.70;;
35943;SDS011;22029;54.774;9.434;2023-10-08T12:18:35;13.43;;;12.93;;
35943;SDS011;22029;54.774;9.434;2023-10-08T12:21:08;14.30;;;13.80;;
35943;SDS011;22029;54.774;9.434;2023-10-08T12:23:39;13.50;;;13.00;;
35943;SDS011;22029;54.774;9.434;2023-10-08T12:26:10;12.40;;;12.00;;
35943;SDS011;22029;54.774;9.434;2023-10-08T12:28:43;12.10;;;11.70;;
35943;SDS011;22029;54.774;9.434;2023-10-08T12:31:13;12.47;;;12.07;;
35943;SDS011;22029;54.774;9.434;2023-10-08T12:33:45;13.33;;;12.90;;
35943;SDS011;22029;54.774;9.434;2023-10-08T12:36:14;13.90;;;13.40;;
35943;SDS011;22029;54.774;9.434;2023-10-08T12:38:44;15.00;;;14.50;;
35943;SDS011;22029;54.774;9.434;2023-10-08T12:41:15;15.13;;;14.63;;
35943;SDS011;22029;54.774;9.434;2023-10-08T12:43:46;14.73;;;14.23;;
35943;SDS011;22029;54.774;9.434;2023-10-08T12:46:20;13.90;;;13.40;;
35943;SDS011;22029;54.774;9.434;2023-10-08T12:48:54;14.07;;;13.57;;
35943;SDS011;22029;54.774;9.434;2023-10-08T12:51:24;15.30;;;14.80;;
35943;SDS011;22029;54.774;9.434;2023-10-08T12:53:54;15.87;;;15.27;;
35943;SDS011;22029;54.774;9.434;2023-10-08T12:56:34;14.77;;;14.27;;
35943;SDS011;22029;54.774;9.434;2023-10-08T12:59:07;13.20;;;12.80;;
35943;SDS011;22029;54.774;9.434;2023-10-08T13:01:47;14.87;;;14.37;;
35943;SDS011;22029;54.774;9.434;2023-10-08T13:04:23;14.50;;;14.00;;
35943;SDS011;22029;54.774;9.434;2023-10-08T13:06:57;14.77;;;14.27;;
35943;SDS011;22029;54.774;9.434;2023-10-08T13:09:29;14.93;;;14.43;;
35943;SDS011;22029;54.774;9.434;2023-10-08T13:11:59;13.83;;;13.33;;
35943;SDS011;22029;54.774;9.434;2023-10-08T13:14:29;14.80;;;14.30;;
35943;SDS011;22029;54.774;9.434;2023-10-08T13:17:03;13.80;;;13.30;;
35943;SDS011;22029;54.774;9.434;2023-10-08T13:19:39;14.10;;;13.60;;
35943;SDS011;22029;54.774;9.434;2023-10-08T13:22:09;13.73;;;13.23;;
35943;SDS011;22029;54.774;9.434;2023-10-08T13:24:47;13.53;;;13.03;;
35943;SDS011;22029;54.774;9.434;2023-10-08T13:27:17;13.97;;;13.47;;
35943;SDS011;22029;54.774;9.434;2023-10-08T13:29:46;14.20;;;13.70;;
35943;SDS011;22029;54.774;9.434;2023-10-08T13:32:16;14.60;;;14.10;;
35943;SDS011;22029;54.774;9.434;2023-10-08T13:34:47;14.03;;;13.53;;
35943;SDS011;22029;54.774;9.434;2023-10-08T13:37:16;13.70;;;13.20;;
35943;SDS011;22029;54.774;9.434;2023-10-08T13:39:46;14.23;;;13.73;;
35943;SDS011;22029;54.774;9.434;2023-10-08T13:42:15;13.40;;;12.97;;
35943;SDS011;22029;54.774;9.434;2023-10-08T13:44:48;13.67;;;13.17;;
35943;SDS011;22029;54.774;9.434;2023-10-08T13:47:19;14.63;;;14.13;;
35943;SDS011;22029;54.774;9.434;2023-10-08T13:49:54;12.60;;;12.20;;
35943;SDS011;22029;54.774;9.434;2023-10-08T13:52:26;12.93;;;12.53;;
35943;SDS011;22029;54.774;9.434;2023-10-08T13:54:56;12.53;;;12.13;;
35943;SDS011;22029;54.774;9.434;2023-10-08T13:57:27;12.90;;;12.50;;
35943;SDS011;22029;54.774;9.434;2023-10-08T14:00:00;11.30;;;10.90;;
35943;SDS011;22029;54.774;9.434;2023-10-08T14:02:39;12.20;;;11.80;;
35943;SDS011;22029;54.774;9.434;2023-10-08T14:05:10;12.53;;;12.13;;
35943;SDS011;22029;54.774;9.434;2023-10-08T14:07:42;11.80;;;11.40;;
35943;SDS011;22029;54.774;9.434;2023-10-08T14:10:13;11.53;;;11.13;;
35943;SDS011;22029;54.774;9.434;2023-10-08T14:12:46;12.60;;;12.20;;
35943;SDS011;22029;54.774;9.434;2023-10-08T14:15:17;12.73;;;12.33;;
35943;SDS011;22029;54.774;9.434;2023-10-08T14:17:47;12.73;;;12.33;;
35943;SDS011;22029;54.774;9.434;2023-10-08T14:20:18;13.00;;;12.60;;
35943;SDS011;22029;54.774;9.434;2023-10-08T14:22:50;12.03;;;11.63;;
35943;SDS011;22029;54.774;9.434;2023-10-08T14:25:25;12.20;;;11.80;;
35943;SDS011;22029;54.774;9.434;2023-10-08T14:27:55;11.83;;;11.43;;
35943;SDS011;22029;54.774;9.434;2023-10-08T14:30:32;12.10;;;11.70;;
35943;SDS011;22029;54.774;9.434;2023-10-08T14:33:08;12.70;;;12.30;;
35943;SDS011;22029;54.774;9.434;2023-10-08T14:35:42;12.13;;;11.73;;
35943;SDS011;22029;54.774;9.434;2023-10-08T14:38:31;11.70;;;11.30;;
35943;SDS011;22029;54.774;9.434;2023-10-08T14:41:19;11.03;;;10.63;;
35943;SDS011;22029;54.774;9.434;2023-10-08T14:44:06;11.50;;;11.10;;
35943;SDS011;22029;54.774;9.434;2023-10-08T14:46:36;11.13;;;10.73;;
35943;SDS011;22029;54.774;9.434;2023-10-08T14:49:05;10.77;;;10.47;;
35943;SDS011;22029;54.774;9.434;2023-10-08T14:51:38;10.50;;;10.20;;
35943;SDS011;22029;54.774;9.434;2023-10-08T14:54:09;10.33;;;10.03;;
35943;SDS011;22029;54.774;9.434;2023-10-08T14:56:39;10.23;;;9.93;;
35943;SDS011;22029;54.774;9.434;2023-10-08T14:59:09;10.17;;;9.87;;
35943;SDS011;22029;54.774;9.434;2023-10-08T15:01:39;10.27;;;9.97;;
35943;SDS011;22029;54.774;9.434;2023-10-08T15:04:09;11.20;;;10.80;;
35943;SDS011;22029;54.774;9.434;2023-10-08T15:06:40;11.20;;;10.80;;
35943;SDS011;22029;54.774;9.434;2023-10-08T15:09:11;11.30;;;10.90;;
35943;SDS011;22029;54.774;9.434;2023-10-08T15:11:48;10.63;;;10.33;;
35943;SDS011;22029;54.774;9.434;2023-10-08T15:14:18;10.10;;;9.80;;
35943;SDS011;22029;54.774;9.434;2023-10-08T15:16:50;10.17;;;9.87;;
35943;SDS011;22029;54.774;9.434;2023-10-08T15:19:21;10.43;;;10.13;;
35943;SDS011;22029;54.774;9.434;2023-10-08T15:21:52;9.67;;;9.37;;
35943;SDS011;22029;54.774;9.434;2023-10-08T15:24:22;9.07;;;8.77;;
35943;SDS011;22029;54.774;9.434;2023-10-08T15:26:52;9.10;;;8.80;;